Nearby METAR Reports

 

KI68 - Lebanon, Ohio, USA
Distance from station: SW 1mi, 3km
Updated: Mon, 24-Jun-2024 6:55pm EDT
NOT Current
Clear
Clear
 Wind from NW
Wind: NW 7 mph , 11 km/h
Temperature: 82°F , 28°C
Heat Index: 82°F , 28°C
Dew Point: 61°F , 16°C
Humidity: 48%
Barometer: 29.96 inHg , 1014.6 hPa
Clouds: Clear
Visibility: 10 miles , 16 km
2024/06/24 22:55 KI68 242255Z AUTO 32006KT 10SM CLR 28/16 A2996 RMK AO2
KLEX - Lexington, Kentucky, USA
Distance from station: SE 25mi, 38km
Updated: Mon, 24-Jun-2024 6:54pm EDT
NOT Current
Mostly cloudy
Mostly cloudy
 Wind from NNW
Wind: NNW 5 mph , 7 km/h
Temperature: 86°F , 30°C
Dew Point: 57°F , 14°C
Humidity: 38%
Barometer: 29.98 inHg , 1015.2 hPa
Clouds: Mostly cloudy
Visibility: 10 miles , 16 km
Cloud details: Mostly cloudy 6500 ft
2024/06/24 22:54 KLEX 242254Z 33004KT 10SM BKN065 30/14 A2998 RMK AO2 SLPNO T03000144
 
KFFT - Frankfort, Kentucky, USA
Distance from station: WNW 24mi, 38km
Updated: Mon, 24-Jun-2024 6:53pm EDT
NOT Current
Clear
Clear
 Wind from WNW
Wind: WNW 5 mph , 7 km/h
Temperature: 84°F , 29°C
Heat Index: 83°F , 28°C
Dew Point: 57°F , 14°C
Humidity: 40%
Barometer: 29.97 inHg , 1014.9 hPa
Clouds: Clear
Visibility: 10 miles , 16 km
2024/06/24 22:53 KFFT 242253Z AUTO 29004KT 10SM CLR 29/14 A2997 RMK AO2 SLP140 T02940139
KIOB - Mount Sterling, Kentucky, USA
Distance from station: E 28mi, 46km
Updated: Mon, 24-Jun-2024 6:55pm EDT
NOT Current
Clear
Clear
 Wind from calm
Wind: Calm
Temperature: 82°F , 28°C
Heat Index: 82°F , 28°C
Dew Point: 59°F , 15°C
Humidity: 45%
Barometer: 30.01 inHg , 1016.3 hPa
Clouds: Clear
Visibility: 10 miles , 16 km
2024/06/24 22:55 KIOB 242255Z AUTO 00000KT 10SM CLR 28/15 A3001 RMK AO2 PWINO
 
KDVK - Danville, Kentucky, USA
Distance from station: SSW 35mi, 56km
Updated: Mon, 24-Jun-2024 5:30pm EDT
NOT Current

 Wind from N
Wind: N 7 mph , 11 km/h
Temperature: 86°F , 30°C
Dew Point: 55°F , 13°C
Humidity: 35%
Barometer: 30.00 inHg , 1015.9 hPa
Visibility: 10 miles , 16 km
2024/06/24 21:30 KDVK 242130Z AUTO 01006KT 10SM 30/13 A3000 RMK AO2
K6I2 - Springfield, Kentucky, USA
Distance from station: SW 49mi, 80km
Updated: Tue, 25-Jun-2024 7:13am EDT
unable to load K6I2 data RC=
unable to load K6I2 data RC=
 
 
KSYM - Morehead, Kentucky, USA
Distance from station: ENE 51mi, 83km
Updated: Tue, 25-Jun-2024 7:14am EDT
unable to load KSYM data RC=
unable to load KSYM data RC=
 
KFGX - Flemingsburg, Kentucky, USA
Distance from station: NE 54mi, 87km
Updated: Tue, 25-Jun-2024 7:14am EDT
unable to load KFGX data RC=
unable to load KFGX data RC=
 
 
KLOU - Louisville/Bowmn, Kentucky, USA
Distance from station: W 64mi, 104km
Updated: Mon, 24-Jun-2024 6:53pm EDT
NOT Current
Clear
Clear
 Wind from calm
Wind: Calm
Temperature: 88°F , 31°C
Dew Point: 59°F , 15°C
Humidity: 38%
Barometer: 29.95 inHg , 1014.2 hPa
Clouds: Clear
Visibility: 10 miles , 16 km
2024/06/24 22:53 KLOU 242253Z 00000KT 10SM CLR 31/15 A2995 RMK AO2 SLP137 T03060150
KSDF - Louisville, Kentucky, USA
Distance from station: W 68mi, 109km
Updated: Mon, 24-Jun-2024 6:56pm EDT
NOT Current
Few Clouds
Few Clouds
 Wind from varies
Wind: varies 5 mph , 7 km/h
Temperature: 90°F , 32°C
Dew Point: 57°F , 14°C
Humidity: 33%
Barometer: 29.94 inHg , 1013.9 hPa
Clouds: Few Clouds
Visibility: 10 miles , 16 km
Cloud details: Few Clouds 7000 ft
Few Clouds 30000 ft
2024/06/24 22:56 KSDF 242256Z VRB04KT 10SM FEW070 FEW300 32/14 A2994 RMK AO2 SLP134 T03220139
 
KSME - Somerset, Kentucky, USA
Distance from station: S 69mi, 111km
Updated: Mon, 24-Jun-2024 6:55pm EDT
NOT Current
Clear
Clear
 Wind from N
Wind: N 8 mph , 13 km/h
Temperature: 84°F , 29°C
Heat Index: 83°F , 28°C
Dew Point: 57°F , 14°C
Humidity: 40%
Barometer: 29.96 inHg , 1014.6 hPa
Clouds: Clear
Visibility: 10 miles , 16 km
2024/06/24 22:55 KSME 242255Z AUTO 36007KT 10SM CLR 29/14 A2996 RMK AO2
KCVG - Covington, Kentucky, USA
Distance from station: N 70mi, 113km
Updated: Mon, 24-Jun-2024 6:52pm EDT
NOT Current
Few Clouds
Few Clouds
 Wind from NW
Wind: NW 7 mph , 11 km/h
Temperature: 84°F , 29°C
Dew Point: 55°F , 13°C
Humidity: 37%
Barometer: 29.97 inHg , 1014.9 hPa
Clouds: Few Clouds
Visibility: 10 miles , 16 km
Cloud details: Few Clouds 7000 ft
2024/06/24 22:52 KCVG 242252Z 31006KT 10SM FEW070 29/13 A2997 RMK AO2 SLP138 T02940133
 
KLOZ - London, Kentucky, USA
Distance from station: SSE 70mi, 113km
Updated: Mon, 24-Jun-2024 6:53pm EDT
NOT Current
Clear
Clear
 Wind from NNW
Wind: NNW 6 mph , 9 km/h
Temperature: 84°F , 29°C
Heat Index: 83°F , 28°C
Dew Point: 57°F , 14°C
Humidity: 40%
Barometer: 29.98 inHg , 1015.2 hPa
Clouds: Clear
Visibility: 10 miles , 16 km
2024/06/24 22:53 KLOZ 242253Z AUTO 34005KT 10SM CLR 29/14 A2998 RMK AO2 SLP139 T02890139
KJKL - Noctor/Jackson, Kentucky, USA
Distance from station: ESE 72mi, 115km
Updated: Mon, 24-Jun-2024 6:53pm EDT
NOT Current
Clear
Clear
 Wind from N
Wind: N 3 mph , 6 km/h
Temperature: 82°F , 28°C
Heat Index: 82°F , 28°C
Dew Point: 59°F , 15°C
Humidity: 45%
Barometer: 29.99 inHg , 1015.6 hPa
Clouds: Clear
Visibility: 10 miles , 16 km
2024/06/24 22:53 KJKL 242253Z AUTO 01003KT 10SM CLR 28/15 A2999 RMK AO2 SLP140 T02780150
 
KIMS - Madison, Indiana, USA
Distance from station: NW 72mi, 116km
Updated: Mon, 24-Jun-2024 6:55pm EDT
NOT Current
Clear
Clear
 Wind from calm
Wind: Calm
Temperature: 86°F , 30°C
Dew Point: 54°F , 12°C
Humidity: 33%
Barometer: 29.99 inHg , 1015.6 hPa
Clouds: Clear
Visibility: 10 miles , 16 km
2024/06/24 22:55 KIMS 242255Z AUTO 00000KT 10SM CLR 30/12 A2999 RMK AO2
KLUK - Cincinnat/Lunken, Ohio, USA
Distance from station: N 73mi, 118km
Updated: Mon, 24-Jun-2024 6:53pm EDT
NOT Current
Partly cloudy
Partly cloudy
 Wind from E
Wind: E 6 mph , 9 km/h
Temperature: 84°F , 29°C
Heat Index: 84°F , 29°C
Dew Point: 61°F , 16°C
Humidity: 45%
Barometer: 29.95 inHg , 1014.2 hPa
Clouds: Partly cloudy
Visibility: 10 miles , 16 km
Cloud details: Partly cloudy 7000 ft
2024/06/24 22:53 KLUK 242253Z 08005KT 10SM SCT070 29/16 A2995 RMK AO2 SLP136 T02940161
 
KI69 - Batavia, Ohio, USA
Distance from station: NNE 74mi, 119km
Updated: Mon, 24-Jun-2024 6:56pm EDT
NOT Current
Partly cloudy
Partly cloudy
 Wind from calm
Wind: Calm
Temperature: 82°F , 28°C
Heat Index: 82°F , 28°C
Dew Point: 57°F , 14°C
Humidity: 42%
Barometer: 29.98 inHg , 1015.2 hPa
Clouds: Partly cloudy
Visibility: 10 miles , 16 km
Cloud details: Partly cloudy 7000 ft
2024/06/24 22:56 KI69 242256Z AUTO 00000KT 10SM SCT070 28/14 A2998 RMK AO1 T02830144